createdAt,value
2022-09-26T00:01:32.795Z,11.23
2022-09-26T00:04:04.401Z,10.65
2022-09-26T00:06:31.222Z,10.50
2022-09-26T00:08:59.377Z,11.43
2022-09-26T00:11:30.863Z,10.88
2022-09-26T00:14:01.138Z,11.55
2022-09-26T00:16:28.395Z,12.00
2022-09-26T00:18:57.081Z,11.32
2022-09-26T00:21:25.647Z,11.95
2022-09-26T00:23:54.163Z,12.43
2022-09-26T00:26:23.375Z,11.32
2022-09-26T00:28:50.675Z,12.00
2022-09-26T00:31:29.244Z,11.90
2022-09-26T00:33:57.612Z,10.85
2022-09-26T00:36:37.062Z,10.82
2022-09-26T00:39:07.596Z,10.75
2022-09-26T00:41:35.907Z,11.27
2022-09-26T00:44:03.766Z,10.70
2022-09-26T00:46:46.128Z,10.65
2022-09-26T00:49:29.497Z,11.63
2022-09-26T00:52:20.414Z,11.32
2022-09-26T00:54:50.861Z,10.30
2022-09-26T00:57:30.470Z,10.52
2022-09-26T01:00:04.315Z,11.02
2022-09-26T01:02:31.293Z,11.50
2022-09-26T01:05:00.993Z,10.90
2022-09-26T01:07:31.224Z,11.05
2022-09-26T01:09:59.523Z,10.57
2022-09-26T01:12:26.337Z,11.25
2022-09-26T01:14:54.742Z,10.77
2022-09-26T01:17:24.410Z,11.20
2022-09-26T01:20:07.180Z,11.55
2022-09-26T01:23:02.217Z,12.15
2022-09-26T01:25:32.410Z,11.30
2022-09-26T01:28:41.885Z,12.23
2022-09-26T01:31:29.479Z,11.30
2022-09-26T01:34:32.704Z,11.35
2022-09-26T01:37:18.060Z,8.35
2022-09-26T01:40:13.998Z,11.05
2022-09-26T01:43:02.610Z,10.93
2022-09-26T01:45:53.523Z,10.98
2022-09-26T01:48:31.304Z,11.10
2022-09-26T01:51:09.873Z,10.65
2022-09-26T01:53:42.426Z,11.30
2022-09-26T01:56:19.778Z,10.63
2022-09-26T01:58:55.380Z,11.38
2022-09-26T02:01:25.931Z,11.40
2022-09-26T02:04:00.135Z,11.90
2022-09-26T02:06:44.724Z,10.23
2022-09-26T02:09:21.953Z,10.48
2022-09-26T02:11:51.031Z,10.52
2022-09-26T02:14:25.583Z,11.00
2022-09-26T02:16:58.059Z,10.40
2022-09-26T02:19:30.261Z,11.75
2022-09-26T02:21:58.965Z,11.17
2022-09-26T02:24:26.368Z,11.43
2022-09-26T02:26:53.767Z,11.48
2022-09-26T02:29:21.633Z,11.73
2022-09-26T02:31:57.478Z,11.05
2022-09-26T02:34:26.426Z,11.00
2022-09-26T02:36:56.123Z,10.55
2022-09-26T02:39:24.074Z,10.52
2022-09-26T02:42:09.191Z,10.32
2022-09-26T02:45:12.608Z,9.57
2022-09-26T02:48:12.857Z,9.70
2022-09-26T02:51:05.182Z,9.20
2022-09-26T02:53:49.454Z,9.43
2022-09-26T02:57:00.177Z,10.05
2022-09-26T02:59:57.613Z,10.18
2022-09-26T03:02:50.725Z,10.13
2022-09-26T03:05:23.412Z,10.52
2022-09-26T03:07:59.921Z,9.05
2022-09-26T03:10:28.523Z,9.75
2022-09-26T03:13:02.728Z,9.27
2022-09-26T03:15:33.318Z,9.45
2022-09-26T03:18:04.256Z,8.43
2022-09-26T03:20:31.511Z,8.73
2022-09-26T03:22:58.301Z,8.80
2022-09-26T03:25:27.787Z,8.80
2022-09-26T03:27:55.325Z,8.25
2022-09-26T03:30:24.893Z,8.40
2022-09-26T03:32:51.737Z,8.18
2022-09-26T03:35:18.904Z,8.50
2022-09-26T03:37:45.678Z,8.63
2022-09-26T03:40:13.333Z,7.82
2022-09-26T03:42:40.360Z,7.93
2022-09-26T03:45:13.309Z,8.23
2022-09-26T03:47:41.886Z,8.68
2022-09-26T03:50:09.678Z,7.70
2022-09-26T03:52:36.609Z,8.32
2022-09-26T03:55:04.819Z,8.57
2022-09-26T03:57:31.604Z,8.10
2022-09-26T03:59:58.433Z,8.30
2022-09-26T04:02:25.481Z,8.73
2022-09-26T04:04:53.806Z,7.63
2022-09-26T04:07:22.003Z,7.65
2022-09-26T04:09:48.830Z,8.93
2022-09-26T04:12:15.665Z,8.45
2022-09-26T04:14:43.477Z,8.68
2022-09-26T04:17:10.754Z,8.50
2022-09-26T04:19:37.618Z,8.55
2022-09-26T04:22:04.988Z,8.07
2022-09-26T04:24:32.835Z,8.27
2022-09-26T04:27:00.846Z,8.15
2022-09-26T04:29:29.065Z,8.07
2022-09-26T04:31:55.961Z,7.38
2022-09-26T04:34:27.246Z,8.23
2022-09-26T04:36:56.259Z,8.13
2022-09-26T04:39:25.544Z,7.97
2022-09-26T04:41:53.319Z,8.00
2022-09-26T04:44:20.411Z,8.15
2022-09-26T04:46:48.043Z,8.18
2022-09-26T04:49:14.954Z,7.53
2022-09-26T04:51:42.004Z,7.93
2022-09-26T04:54:10.250Z,7.80
2022-09-26T04:56:37.035Z,8.45
2022-09-26T04:59:03.982Z,7.80
2022-09-26T05:01:30.847Z,7.38
2022-09-26T05:03:58.381Z,7.28
2022-09-26T05:06:25.429Z,7.32
2022-09-26T05:08:52.263Z,7.18
2022-09-26T05:11:21.453Z,6.90
2022-09-26T05:13:53.775Z,7.30
2022-09-26T05:16:22.128Z,7.50
2022-09-26T05:18:52.494Z,7.85
2022-09-26T05:21:19.839Z,7.68
2022-09-26T05:24:05.635Z,7.97
2022-09-26T05:26:46.987Z,7.03
2022-09-26T05:29:14.270Z,7.07
2022-09-26T05:31:41.356Z,7.90
2022-09-26T05:34:15.455Z,7.60
2022-09-26T05:36:45.463Z,6.93
2022-09-26T05:39:31.231Z,7.10
2022-09-26T05:41:59.551Z,7.15
2022-09-26T05:44:27.519Z,7.00
2022-09-26T05:46:57.194Z,7.07
2022-09-26T05:49:24.222Z,7.63
2022-09-26T05:51:53.161Z,6.70
2022-09-26T05:54:21.136Z,6.97
2022-09-26T05:56:48.341Z,5.95
2022-09-26T05:59:15.423Z,5.47
2022-09-26T06:01:42.740Z,5.72
2022-09-26T06:04:11.300Z,5.30
2022-09-26T06:06:38.425Z,4.97
2022-09-26T06:09:07.303Z,5.60
2022-09-26T06:11:34.273Z,5.30
2022-09-26T06:14:01.259Z,5.55
2022-09-26T06:16:29.069Z,5.43
2022-09-26T06:18:56.158Z,5.50
2022-09-26T06:21:23.692Z,5.70
2022-09-26T06:23:50.599Z,6.10
2022-09-26T06:26:25.780Z,6.13
2022-09-26T06:29:00.498Z,5.97
2022-09-26T06:31:28.506Z,6.13
2022-09-26T06:33:55.751Z,6.43
2022-09-26T06:36:24.036Z,5.93
2022-09-26T06:38:51.605Z,5.75
2022-09-26T06:41:19.743Z,5.80
2022-09-26T06:43:47.520Z,5.72
2022-09-26T06:46:16.321Z,5.53
2022-09-26T06:48:43.676Z,5.88
2022-09-26T06:51:13.751Z,6.90
2022-09-26T06:53:41.259Z,5.55
2022-09-26T06:56:08.127Z,6.15
2022-09-26T06:58:35.059Z,5.57
2022-09-26T07:01:03.030Z,5.22
2022-09-26T07:03:30.037Z,5.50
2022-09-26T07:05:58.213Z,5.65
2022-09-26T07:08:43.693Z,6.70
2022-09-26T07:11:35.244Z,5.88
2022-09-26T07:14:02.034Z,5.32
2022-09-26T07:16:30.848Z,5.40
2022-09-26T07:18:58.178Z,5.95
2022-09-26T07:21:25.617Z,5.80
2022-09-26T07:23:58.662Z,5.40
2022-09-26T07:28:54.886Z,5.30
2022-09-26T07:31:26.215Z,5.68
2022-09-26T07:33:53.993Z,6.47
2022-09-26T07:36:21.077Z,6.20
2022-09-26T07:38:49.407Z,5.82
2022-09-26T07:41:17.725Z,5.90
2022-09-26T07:46:50.156Z,5.32
2022-09-26T07:49:35.809Z,5.30
2022-09-26T07:52:02.739Z,5.43
2022-09-26T07:54:29.557Z,5.18
2022-09-26T07:56:56.323Z,4.35
2022-09-26T07:59:23.260Z,4.38
2022-09-26T08:01:53.193Z,4.00
2022-09-26T08:04:20.173Z,4.03
2022-09-26T08:06:46.978Z,4.60
2022-09-26T08:09:14.990Z,5.03
2022-09-26T08:11:42.022Z,3.70
2022-09-26T08:14:09.037Z,4.13
2022-09-26T08:16:39.614Z,3.78
2022-09-26T08:19:07.833Z,4.38
2022-09-26T08:21:35.456Z,4.40
2022-09-26T08:24:02.539Z,4.10
2022-09-26T08:26:29.617Z,3.50
2022-09-26T08:28:56.439Z,3.20
2022-09-26T08:31:23.664Z,3.00
2022-09-26T08:33:50.465Z,2.40
2022-09-26T08:36:17.617Z,4.72
2022-09-26T08:38:44.590Z,3.78
2022-09-26T08:41:37.587Z,5.05
2022-09-26T08:44:26.490Z,3.47
2022-09-26T08:47:06.522Z,2.60
2022-09-26T08:50:07.454Z,2.90
2022-09-26T08:53:06.653Z,3.03
2022-09-26T08:55:40.733Z,2.63
2022-09-26T08:58:29.221Z,2.80
2022-09-26T09:01:02.781Z,3.25
2022-09-26T09:03:52.195Z,2.70
2022-09-26T09:06:19.584Z,3.08
2022-09-26T09:08:57.136Z,3.75
2022-09-26T09:12:15.245Z,3.10
2022-09-26T09:15:20.476Z,2.80
2022-09-26T09:18:13.448Z,3.35
2022-09-26T09:21:27.346Z,3.08
2022-09-26T09:24:15.704Z,3.00
2022-09-26T09:30:40.782Z,3.00
2022-09-26T09:33:17.382Z,3.10
2022-09-26T09:35:53.031Z,2.78
2022-09-26T09:38:26.052Z,2.67
2022-09-26T09:43:59.951Z,3.08
2022-09-26T09:46:38.326Z,3.25
2022-09-26T09:49:22.253Z,2.90
2022-09-26T09:52:20.138Z,3.33
2022-09-26T09:54:59.547Z,3.10
2022-09-26T09:57:54.062Z,2.08
2022-09-26T10:00:24.011Z,2.40
2022-09-26T10:03:01.110Z,2.60
2022-09-26T10:05:45.637Z,2.17
2022-09-26T10:08:14.291Z,3.00
2022-09-26T10:11:19.549Z,2.15
2022-09-26T10:13:53.207Z,3.00
2022-09-26T10:16:21.003Z,3.00
2022-09-26T10:19:06.093Z,2.47
2022-09-26T10:21:39.910Z,1.90
2022-09-26T10:24:22.322Z,2.63
2022-09-26T10:26:50.161Z,1.70
2022-09-26T10:29:22.407Z,2.40
2022-09-26T10:31:56.773Z,1.90
2022-09-26T10:34:33.948Z,1.83
2022-09-26T10:37:25.590Z,1.98
2022-09-26T10:40:13.981Z,2.05
2022-09-26T10:42:43.193Z,2.10
2022-09-26T10:45:29.378Z,1.73
2022-09-26T10:47:57.347Z,1.58
2022-09-26T10:50:27.810Z,1.60
2022-09-26T10:53:08.173Z,2.08
2022-09-26T10:55:44.213Z,2.47
2022-09-26T10:58:18.740Z,2.25
2022-09-26T11:00:51.545Z,2.10
2022-09-26T11:03:26.140Z,2.30
2022-09-26T11:05:57.713Z,2.20
2022-09-26T11:08:34.747Z,1.80
2022-09-26T11:11:05.347Z,1.80
2022-09-26T11:14:10.900Z,1.90
2022-09-26T11:16:43.534Z,2.13
2022-09-26T11:19:30.949Z,2.35
2022-09-26T11:22:30.204Z,2.03
2022-09-26T11:33:45.912Z,1.45
2022-09-26T11:36:39.728Z,1.58
2022-09-26T11:39:26.413Z,1.77
2022-09-26T11:42:31.407Z,1.80
2022-09-26T11:45:05.072Z,1.42
2022-09-26T11:47:59.571Z,1.73
2022-09-26T11:51:09.366Z,1.70
2022-09-26T11:53:58.310Z,1.58
2022-09-26T11:57:17.885Z,1.60
2022-09-26T12:00:24.158Z,1.45
2022-09-26T12:03:43.481Z,1.50
2022-09-26T12:07:02.004Z,1.40
2022-09-26T12:10:08.431Z,1.83
2022-09-26T12:13:19.093Z,1.90
2022-09-26T12:16:24.515Z,1.65
2022-09-26T12:19:38.420Z,1.92
2022-09-26T12:22:36.294Z,1.45
2022-09-26T12:25:10.989Z,1.70
2022-09-26T12:27:59.000Z,1.63
2022-09-26T12:30:33.319Z,2.85
2022-09-26T12:33:06.209Z,1.70
2022-09-26T12:35:49.721Z,1.65
2022-09-26T12:38:47.508Z,2.08
2022-09-26T12:41:29.309Z,1.88
2022-09-26T12:44:51.614Z,1.77
2022-09-26T12:47:46.554Z,2.20
2022-09-26T12:50:16.486Z,1.52
2022-09-26T12:52:55.300Z,1.75
2022-09-26T12:55:38.549Z,1.92
2022-09-26T12:58:28.277Z,1.80
2022-09-26T13:01:15.065Z,1.63
2022-09-26T13:04:25.108Z,2.00
2022-09-26T13:07:28.615Z,2.17
2022-09-26T13:10:09.955Z,1.80
2022-09-26T13:12:55.845Z,1.90
2022-09-26T13:15:34.878Z,2.10
2022-09-26T13:18:12.883Z,2.50
2022-09-26T13:20:43.687Z,1.90
2022-09-26T13:23:29.662Z,2.05
2022-09-26T13:26:20.074Z,2.00
2022-09-26T13:29:17.055Z,1.60
2022-09-26T13:32:23.683Z,1.52
2022-09-26T13:35:04.065Z,2.35
2022-09-26T13:38:06.204Z,2.20
2022-09-26T13:41:01.912Z,1.67
2022-09-26T13:43:49.825Z,2.83
2022-09-26T13:46:22.407Z,2.35
2022-09-26T13:49:16.070Z,2.63
2022-09-26T13:52:32.290Z,3.70
2022-09-26T13:55:13.686Z,1.60
2022-09-26T13:58:06.836Z,3.97
2022-09-26T14:00:48.951Z,1.98
2022-09-26T14:03:16.635Z,1.50
2022-09-26T14:05:50.779Z,2.00
2022-09-26T14:08:55.143Z,2.08
2022-09-26T14:11:33.713Z,3.58
2022-09-26T14:14:19.049Z,2.78
2022-09-26T14:16:47.467Z,4.60
2022-09-26T14:19:20.564Z,2.90
2022-09-26T14:24:43.410Z,1.88
2022-09-26T14:27:10.110Z,2.05
2022-09-26T14:29:50.334Z,2.20
2022-09-26T14:32:23.368Z,3.70
2022-09-26T14:37:25.435Z,2.75
2022-09-26T14:39:59.927Z,3.23
2022-09-26T14:42:36.892Z,2.67
2022-09-26T14:45:16.450Z,1.92
2022-09-26T14:47:54.118Z,2.13
2022-09-26T14:51:06.360Z,2.13
2022-09-26T14:53:47.928Z,2.22
2022-09-26T14:56:38.404Z,2.63
2022-09-26T14:59:40.104Z,1.85
2022-09-26T15:02:28.759Z,2.15
2022-09-26T15:05:28.091Z,5.25
2022-09-26T15:07:56.874Z,3.42
2022-09-26T15:10:35.479Z,2.33
2022-09-26T15:13:17.263Z,2.70
2022-09-26T15:15:56.357Z,2.30
2022-09-26T15:18:26.390Z,3.92
2022-09-26T15:21:33.579Z,3.67
2022-09-26T15:24:05.105Z,2.30
2022-09-26T15:26:37.029Z,3.40
2022-09-26T15:29:07.005Z,3.45
2022-09-26T15:31:47.485Z,2.90
2022-09-26T15:34:39.057Z,2.30
2022-09-26T15:37:19.086Z,4.03
2022-09-26T15:39:46.001Z,3.50
2022-09-26T15:42:38.790Z,2.20
2022-09-26T15:45:50.521Z,4.80
2022-09-26T15:48:20.402Z,4.97
2022-09-26T15:50:47.527Z,4.05
2022-09-26T15:53:39.536Z,3.35
2022-09-26T15:56:10.695Z,3.85
2022-09-26T15:58:46.487Z,4.00
2022-09-26T16:01:21.964Z,4.13
2022-09-26T16:04:03.342Z,2.30
2022-09-26T16:06:56.318Z,3.47
2022-09-26T16:09:38.618Z,2.45
2022-09-26T16:12:16.902Z,2.27
2022-09-26T16:15:03.570Z,2.38
2022-09-26T16:17:32.417Z,2.25
2022-09-26T16:20:24.544Z,2.28
2022-09-26T16:23:05.363Z,2.20
2022-09-26T16:25:33.355Z,1.65
2022-09-26T16:28:10.103Z,2.40
2022-09-26T16:31:01.105Z,3.95
2022-09-26T16:33:33.012Z,3.17
2022-09-26T16:36:14.998Z,3.85
2022-09-26T16:38:41.951Z,3.97
2022-09-26T16:41:56.195Z,3.20
2022-09-26T16:44:34.419Z,3.00
2022-09-26T16:47:05.468Z,3.13
2022-09-26T16:49:48.306Z,2.63
2022-09-26T16:52:34.290Z,3.10
2022-09-26T16:55:06.123Z,3.70
2022-09-26T16:57:37.943Z,4.03
2022-09-26T17:00:40.947Z,3.00
2022-09-26T17:03:30.651Z,3.13
2022-09-26T17:05:59.525Z,2.35
2022-09-26T17:08:27.889Z,2.20
2022-09-26T17:11:00.270Z,2.47
2022-09-26T17:13:32.852Z,2.35
2022-09-26T17:16:03.444Z,2.22
2022-09-26T17:18:33.001Z,1.88
2022-09-26T17:21:01.926Z,2.42
2022-09-26T17:23:45.817Z,2.20
2022-09-26T17:26:22.195Z,2.13
2022-09-26T17:28:50.242Z,3.00
2022-09-26T17:31:21.883Z,2.67
2022-09-26T17:33:52.653Z,2.58
2022-09-26T17:36:26.376Z,3.67
2022-09-26T17:38:56.739Z,3.22
2022-09-26T17:41:25.278Z,4.10
2022-09-26T17:43:59.338Z,5.03
2022-09-26T17:46:27.476Z,4.50
2022-09-26T17:48:56.142Z,3.92
2022-09-26T17:51:23.978Z,3.65
2022-09-26T17:53:52.391Z,4.72
2022-09-26T17:56:20.726Z,3.72
2022-09-26T17:58:49.084Z,3.45
2022-09-26T18:01:30.369Z,2.92
2022-09-26T18:04:02.447Z,2.67
2022-09-26T18:06:32.741Z,2.83
2022-09-26T18:09:07.372Z,4.85
2022-09-26T18:11:36.289Z,10.43
2022-09-26T18:14:05.729Z,9.43
2022-09-26T18:16:32.660Z,12.90
2022-09-26T18:19:04.694Z,9.50
2022-09-26T18:21:35.031Z,10.45
2022-09-26T18:24:06.651Z,8.73
2022-09-26T18:26:47.004Z,10.57
2022-09-26T18:29:31.357Z,26.50
2022-09-26T18:31:59.820Z,21.23
2022-09-26T18:34:27.001Z,17.75
2022-09-26T18:36:57.141Z,14.65
2022-09-26T18:39:25.105Z,5.80
2022-09-26T18:42:03.635Z,5.80
2022-09-26T18:44:35.116Z,12.73
2022-09-26T18:47:14.296Z,9.93
2022-09-26T18:49:46.504Z,7.03
2022-09-26T18:52:18.384Z,8.83
2022-09-26T18:55:06.897Z,6.28
2022-09-26T18:57:53.343Z,5.15
2022-09-26T19:00:20.241Z,6.03
2022-09-26T19:02:50.142Z,4.15
2022-09-26T19:05:17.724Z,3.67
2022-09-26T19:07:45.009Z,3.72
2022-09-26T19:10:20.109Z,3.20
2022-09-26T19:12:47.036Z,4.00
2022-09-26T19:15:16.005Z,9.32
2022-09-26T19:17:43.460Z,7.63
2022-09-26T19:20:10.494Z,7.43
2022-09-26T19:22:37.489Z,6.10
2022-09-26T19:25:04.809Z,6.63
2022-09-26T19:27:42.389Z,7.70
2022-09-26T19:30:22.369Z,5.43
2022-09-26T19:32:53.085Z,5.97
2022-09-26T19:35:31.717Z,9.75
2022-09-26T19:37:59.964Z,6.57
2022-09-26T19:40:29.095Z,9.13
2022-09-26T19:42:57.258Z,8.65
2022-09-26T19:45:25.927Z,4.80
2022-09-26T19:47:55.730Z,4.68
2022-09-26T19:50:28.005Z,6.40
2022-09-26T19:52:58.510Z,6.88
2022-09-26T19:55:29.699Z,6.28
2022-09-26T19:58:20.448Z,6.00
2022-09-26T20:01:03.446Z,4.68
2022-09-26T20:03:40.170Z,4.07
2022-09-26T20:06:27.350Z,4.10
2022-09-26T20:09:02.120Z,4.10
2022-09-26T20:11:29.179Z,4.10
2022-09-26T20:14:14.456Z,4.75
2022-09-26T20:16:42.632Z,5.10
2022-09-26T20:19:17.029Z,5.00
2022-09-26T20:21:44.771Z,4.72
2022-09-26T20:24:19.732Z,4.30
2022-09-26T20:26:48.074Z,4.15
2022-09-26T20:29:16.490Z,3.72
2022-09-26T20:31:43.662Z,4.35
2022-09-26T20:34:12.199Z,3.80
2022-09-26T20:36:51.437Z,3.55
2022-09-26T20:39:26.688Z,4.10
2022-09-26T20:41:53.772Z,3.90
2022-09-26T20:44:28.758Z,3.85
2022-09-26T20:47:01.492Z,3.60
2022-09-26T20:49:46.325Z,3.63
2022-09-26T20:52:21.848Z,3.70
2022-09-26T20:54:49.319Z,4.15
2022-09-26T20:57:17.437Z,3.65
2022-09-26T20:59:44.293Z,4.40
2022-09-26T21:02:23.523Z,4.18
2022-09-26T21:04:51.713Z,4.00
2022-09-26T21:07:19.109Z,4.20
2022-09-26T21:09:46.037Z,4.82
2022-09-26T21:12:14.883Z,4.65
2022-09-26T21:14:42.477Z,4.38
2022-09-26T21:17:29.399Z,3.92
2022-09-26T21:19:56.445Z,4.07
2022-09-26T21:22:27.126Z,3.78
2022-09-26T21:24:54.247Z,4.13
2022-09-26T21:27:21.066Z,4.35
2022-09-26T21:29:50.164Z,4.05
2022-09-26T21:32:20.595Z,3.90
2022-09-26T21:35:13.943Z,5.22
2022-09-26T21:37:43.589Z,4.32
2022-09-26T21:40:10.898Z,3.67
2022-09-26T21:42:38.138Z,4.05
2022-09-26T21:45:09.840Z,4.40
2022-09-26T21:47:37.566Z,4.03
2022-09-26T21:50:07.468Z,4.75
2022-09-26T21:52:42.843Z,3.88
2022-09-26T21:55:29.619Z,4.07
2022-09-26T21:58:03.359Z,3.70
2022-09-26T22:00:30.264Z,3.85
2022-09-26T22:03:00.838Z,4.00
2022-09-26T22:05:27.815Z,4.05
2022-09-26T22:07:55.888Z,3.88
2022-09-26T22:10:23.060Z,3.70
2022-09-26T22:12:52.354Z,4.03
2022-09-26T22:15:20.300Z,4.15
2022-09-26T22:17:47.623Z,3.50
2022-09-26T22:20:14.959Z,4.72
2022-09-26T22:22:42.144Z,3.70
2022-09-26T22:25:09.767Z,3.90
2022-09-26T22:27:37.207Z,3.90
2022-09-26T22:30:05.836Z,3.70
2022-09-26T22:32:33.397Z,4.10
2022-09-26T22:35:00.487Z,3.63
2022-09-26T22:37:28.144Z,4.07
2022-09-26T22:39:55.212Z,3.90
2022-09-26T22:42:22.429Z,3.83
2022-09-26T22:44:49.603Z,5.10
2022-09-26T22:47:16.642Z,4.95
2022-09-26T22:49:43.781Z,4.65
2022-09-26T22:52:11.058Z,4.25
2022-09-26T22:54:38.162Z,4.18
2022-09-26T22:57:05.799Z,4.30
2022-09-26T22:59:32.887Z,4.22
2022-09-26T23:02:00.126Z,4.88
2022-09-26T23:04:47.016Z,4.03
2022-09-26T23:07:17.120Z,4.43
2022-09-26T23:09:44.682Z,4.47
2022-09-26T23:12:12.968Z,4.50
2022-09-26T23:14:40.482Z,5.63
2022-09-26T23:17:07.782Z,5.03
2022-09-26T23:19:34.905Z,5.10
2022-09-26T23:22:02.084Z,4.47
2022-09-26T23:24:29.120Z,5.85
2022-09-26T23:27:00.143Z,4.57
2022-09-26T23:29:27.434Z,5.38
2022-09-26T23:31:55.010Z,4.60
2022-09-26T23:34:22.361Z,4.90
2022-09-26T23:36:49.326Z,4.47
2022-09-26T23:39:17.693Z,4.70
2022-09-26T23:41:44.623Z,4.80
2022-09-26T23:44:11.473Z,4.78
2022-09-26T23:46:38.931Z,4.50
2022-09-26T23:49:06.096Z,4.68
2022-09-26T23:51:33.096Z,4.43
2022-09-26T23:54:00.085Z,4.35
2022-09-26T23:56:27.075Z,4.20
2022-09-26T23:58:57.228Z,4.20
